Békásmegyer ÉK további részletek Békásmegyer ÉK


Békásmegyer DK további részletek Békásmegyer DK


Csillaghegy NY további részletek Csillaghegy NY


Előrejelzés további részletek Előrejelzés


Eu hőtérkép további részletek Eu hőtérkép


Műhold további részletek Műhold


Radar további részletek Radar


EU min. hőtérkép további részletek EU min. hőtérkép


EU max. hőtérkép további részletek EU max. hőtérkép


Villámtérkép további részletek blitzortung!


Csapadékradar további részletek rain snow radar



Közeli METAR jelentések

   
LHBP - Budapest
Távolság az állomástól: DK 24 km
Frissítve: May 22 2022 10:00 am
Derült  
Derült  
   Szél: ÉÉNY 20.4 km/h
Szél: ÉÉNY 20.4 km/h
Hőmérséklet: 20°C
Harmatpont: 5°C
Páratartalom: 38%
Légnyomás: 1015 hPa
Látótávolság: More than 10 km
Felhő fajták: Derült
LHBP 220800Z 33011KT CAVOK 20/05 Q1015 NOSIG
LHDC - Debrecen
Távolság az állomástól: K 192 km
Frissítve: May 22 2022 9:45 am
Derült  
Derült  
   Szél: változó 5.6 km/h
Szél: változó 5.6 km/h
Hőmérséklet: 19°C
Harmatpont: 6°C
Páratartalom: 43%
Légnyomás: 1013 hPa
Látótávolság: More than 10 km
Felhő fajták: Derült
LHDC 220745Z AUTO VRB03KT CAVOK 19/06 Q1013 NOSIG
LHKE - Kecskemét
Távolság az állomástól: DK 91 km
Frissítve: May 22 2022 10:15 am
Derült  
Derült  
   Szél: ÉNY 22.2 km/h
Szél: ÉNY 22.2 km/h
Hőmérséklet: 21°C
Harmatpont: 6°C
Páratartalom: 38%
Légnyomás: 1014 hPa
Látótávolság: More than 10 km
Felhő fajták: Derült
LHKE 220815Z 32012KT 290V350 CAVOK 21/06 Q1014 NOSIG RMK BLU
LHPA - Pápa
Távolság az állomástól: NY 121 km
Frissítve: May 22 2022 10:15 am
Derült  
Derült  
   Szél: É 14.8 km/h
Szél: É 14.8 km/h
Hőmérséklet: 19°C
Harmatpont: 8°C
Páratartalom: 49%
Légnyomás: 1016 hPa
Látótávolság: More than 10 km
Felhő fajták: Derült
LHPA 220815Z 35008KT 300V030 CAVOK 19/08 Q1016 NOSIG RMK BLU
LZSL - Sliac, Slovakia
Távolság az állomástól: É 116 km
Frissítve: Jun 9 2021 10:32 am
NOT Current
Kissé felhős  
Kissé felhős  
   Szél: DK 7.4 km/h
Szél: DK 7.4 km/h
Hőmérséklet: 25°C
Harmatpont: 11°C
Páratartalom: 42%
Légnyomás: 1017 hPa
Felhők: Kissé felhős
Látótávolság: More than 10 km
Felhő fajták: Kissé felhős 4000 ft
LZSL 090832Z 13004KT 9999 FEW040 25/11 Q1017
LOWW - Wien, Austria
Távolság az állomástól: NY 195 km
Frissítve: May 22 2022 10:20 am
Kissé felhős  
Kissé felhős  
   Szél: ÉNY 16.7 km/h
Szél: ÉNY 16.7 km/h
Hőmérséklet: 19°C
Harmatpont: 7°C
Páratartalom: 46%
Légnyomás: 1017 hPa
Felhők: Kissé felhős
Látótávolság: More than 10 km
Felhő fajták: Kissé felhős 4700 ft
LOWW 220820Z 32009KT 290V350 9999 FEW047 19/07 Q1017 NOSIG

Eredeti script  Saratoga-weather.org Adapted for the template by  Weerstation Leuven